Time;durP1;ratioP1;P1;durP2;ratioP2;P2;SDS_P1;SDS_P2;PMS_P1;PMS_P2;Temp;Humidity;BMP_temperature;BMP_pressure;BME280_temperature;BME280_humidity;BME280_pressure;Samples;Min_cycle;Max_cycle;Signal;HPM_P1;HPM_P2
2023/08/27 00:00:49;;;;;;;12.75;9.48;;;;;;;20.06;100.00;92971.69;5049241;28;20045;-79
2023/08/27 00:03:17;;;;;;;11.75;9.40;;;;;;;20.04;100.00;92966.72;5054145;28;20049;-78
2023/08/27 00:05:44;;;;;;;12.95;9.38;;;;;;;20.05;100.00;92965.72;5051807;28;20052;-79
2023/08/27 00:08:11;;;;;;;12.32;9.18;;;;;;;19.89;100.00;92949.38;5054131;28;20057;-79
2023/08/27 00:10:38;;;;;;;11.48;8.82;;;;;;;19.87;100.00;92941.06;5056952;28;20090;-79
2023/08/27 00:13:05;;;;;;;12.35;9.75;;;;;;;20.00;100.00;92958.69;5050968;28;20094;-79
2023/08/27 00:15:32;;;;;;;13.82;9.32;;;;;;;20.09;100.00;92963.31;5065165;28;20049;-79
2023/08/27 00:17:59;;;;;;;14.10;9.50;;;;;;;20.02;100.00;92951.38;5051623;28;20099;-80
2023/08/27 00:20:27;;;;;;;14.77;10.80;;;;;;;20.05;100.00;92944.06;5057448;28;20102;-80
2023/08/27 00:22:53;;;;;;;15.07;9.07;;;;;;;20.09;100.00;92955.50;5052780;28;20093;-79
2023/08/27 00:25:20;;;;;;;13.20;9.68;;;;;;;20.07;100.00;92950.56;5053700;28;20056;-79
2023/08/27 00:27:47;;;;;;;12.13;9.15;;;;;;;20.00;100.00;92945.66;5053355;28;20049;-80
2023/08/27 00:30:14;;;;;;;14.63;9.13;;;;;;;19.91;100.00;92936.88;5054473;28;20091;-79
2023/08/27 00:32:41;;;;;;;11.98;8.88;;;;;;;19.84;100.00;92920.75;5057371;28;20044;-79
2023/08/27 00:35:08;;;;;;;11.30;9.38;;;;;;;19.90;100.00;92938.69;5060490;28;20054;-79
2023/08/27 00:37:36;;;;;;;12.32;9.63;;;;;;;19.81;100.00;92939.56;5052398;28;20459;-79
2023/08/27 00:40:04;;;;;;;11.73;9.10;;;;;;;19.78;100.00;92933.06;5054263;28;20048;-78
2023/08/27 00:42:31;;;;;;;12.65;9.10;;;;;;;19.71;100.00;92933.38;5051424;28;20041;-79
2023/08/27 00:44:58;;;;;;;11.85;9.27;;;;;;;19.73;100.00;92944.28;5062275;28;20106;-78
2023/08/27 00:47:25;;;;;;;12.75;9.80;;;;;;;19.73;100.00;92939.06;5050203;28;20053;-79
2023/08/27 00:49:52;;;;;;;11.93;9.75;;;;;;;19.67;100.00;92934.19;5058286;28;20040;-80
2023/08/27 00:52:21;;;;;;;13.68;9.70;;;;;;;19.68;100.00;92943.56;5050568;28;20731;-79
2023/08/27 00:54:50;;;;;;;11.65;9.32;;;;;;;19.60;100.00;92937.91;5059487;28;20049;-79
2023/08/27 00:57:18;;;;;;;12.40;9.70;;;;;;;19.46;100.00;92914.28;5053511;28;20717;-79
2023/08/27 00:59:46;;;;;;;13.55;9.38;;;;;;;19.50;100.00;92920.50;5053016;28;20088;-78
2023/08/27 01:02:12;;;;;;;11.88;9.68;;;;;;;19.47;100.00;92947.09;5052006;28;20045;-77
2023/08/27 01:04:39;;;;;;;13.57;9.75;;;;;;;19.46;100.00;92939.56;5053498;28;20049;-80
2023/08/27 01:07:16;;;;;;;10.85;9.02;;;;;;;19.43;100.00;92951.28;5052399;28;20099;-79
2023/08/27 01:09:50;;;;;;;12.63;10.15;;;;;;;19.42;100.00;92947.13;5051514;28;20107;-80
2023/08/27 01:12:24;;;;;;;15.48;10.40;;;;;;;19.27;100.00;92929.78;5053080;28;20095;-79
2023/08/27 01:14:53;;;;;;;12.60;9.65;;;;;;;19.29;100.00;92935.50;5057176;28;20045;-80
2023/08/27 01:17:22;;;;;;;13.15;10.55;;;;;;;19.27;100.00;92942.03;5052539;28;20057;-80
2023/08/27 01:19:50;;;;;;;14.02;9.70;;;;;;;19.06;100.00;92913.50;5052048;28;20145;-81
2023/08/27 01:22:18;;;;;;;16.95;9.75;;;;;;;19.19;100.00;92933.75;5054019;28;20044;-80
2023/08/27 01:24:45;;;;;;;13.93;9.32;;;;;;;19.09;100.00;92931.19;5058825;28;20496;-80
2023/08/27 01:27:13;;;;;;;12.45;9.70;;;;;;;19.07;100.00;92936.66;5051306;28;20138;-80
2023/08/27 01:29:44;;;;;;;12.07;9.75;;;;;;;19.13;100.00;92941.84;5053806;28;20099;-80
2023/08/27 01:32:20;;;;;;;12.85;9.45;;;;;;;19.14;100.00;92948.59;5059074;28;20546;-81
2023/08/27 01:34:48;;;;;;;13.27;9.20;;;;;;;19.12;100.00;92946.25;5058904;28;20049;-81
2023/08/27 01:37:15;;;;;;;12.80;9.15;;;;;;;19.02;100.00;92930.69;5054099;28;20095;-80
2023/08/27 01:39:43;;;;;;;14.32;8.70;;;;;;;19.14;100.00;92953.81;5061887;28;20044;-80
2023/08/27 01:42:10;;;;;;;11.50;9.85;;;;;;;19.14;100.00;92957.19;5055333;28;20045;-81
2023/08/27 01:44:37;;;;;;;12.60;9.50;;;;;;;19.13;100.00;92962.69;5050977;28;20115;-80
2023/08/27 01:47:05;;;;;;;14.73;11.40;;;;;;;19.09;100.00;92949.41;5048404;28;20140;-79
2023/08/27 01:49:32;;;;;;;12.52;9.25;;;;;;;19.04;100.00;92945.03;5053725;28;20052;-79
2023/08/27 01:51:58;;;;;;;12.98;9.55;;;;;;;19.05;100.00;92932.78;5049736;28;20802;-79
2023/08/27 01:54:25;;;;;;;17.63;9.73;;;;;;;19.09;100.00;92947.59;5063443;28;20040;-79
2023/08/27 01:56:53;;;;;;;10.27;8.75;;;;;;;19.06;100.00;92948.13;5060721;28;20572;-79
2023/08/27 01:59:20;;;;;;;12.90;9.18;;;;;;;18.92;100.00;92931.50;5056285;28;20099;-79
2023/08/27 02:01:47;;;;;;;13.32;9.75;;;;;;;19.02;100.00;92941.09;5051484;28;20099;-79
2023/08/27 02:04:13;;;;;;;11.57;9.10;;;;;;;18.96;100.00;92943.75;5053493;28;20052;-78
2023/08/27 02:06:40;;;;;;;13.40;9.98;;;;;;;18.92;100.00;92942.72;5049511;28;20460;-78
2023/08/27 02:09:07;;;;;;;16.92;11.07;;;;;;;18.85;100.00;92934.44;5050753;28;20049;-78
2023/08/27 02:11:35;;;;;;;12.10;9.07;;;;;;;18.82;100.00;92933.13;5051243;28;20470;-78
2023/08/27 02:14:03;;;;;;;12.45;9.90;;;;;;;18.76;100.00;92930.81;5052475;28;20040;-78
2023/08/27 02:16:30;;;;;;;12.10;8.63;;;;;;;18.66;100.00;92932.41;5057780;28;20077;-78
2023/08/27 02:18:57;;;;;;;15.95;9.98;;;;;;;18.66;100.00;92935.00;5052951;28;20083;-78
2023/08/27 02:21:24;;;;;;;14.02;9.65;;;;;;;18.68;100.00;92938.13;5048809;28;20448;-78
2023/08/27 02:23:51;;;;;;;11.10;8.95;;;;;;;18.68;100.00;92929.53;5053466;28;20059;-78
2023/08/27 02:26:18;;;;;;;12.95;9.38;;;;;;;18.72;100.00;92937.59;5066089;28;20094;-78
2023/08/27 02:28:46;;;;;;;11.25;9.20;;;;;;;18.67;100.00;92936.59;5054719;28;20093;-78
2023/08/27 02:31:14;;;;;;;13.77;9.52;;;;;;;18.65;100.00;92938.66;5053295;28;20041;-79
2023/08/27 02:33:41;;;;;;;12.68;9.48;;;;;;;18.59;100.00;92933.72;5054441;28;20044;-78
2023/08/27 02:36:13;;;;;;;13.00;9.38;;;;;;;18.59;100.00;92937.13;5054272;28;20103;-79
2023/08/27 02:38:40;;;;;;;11.52;9.80;;;;;;;18.53;100.00;92940.78;5054648;28;20539;-79
2023/08/27 02:41:07;;;;;;;14.07;10.57;;;;;;;18.52;100.00;92932.19;5048503;28;20045;-80
2023/08/27 02:43:33;;;;;;;12.93;10.10;;;;;;;18.56;100.00;92933.22;5053368;28;20493;-79
2023/08/27 02:46:00;;;;;;;12.93;9.85;;;;;;;18.55;100.00;92931.69;5054810;28;20040;-80
2023/08/27 02:48:28;;;;;;;11.88;8.73;;;;;;;18.53;100.00;92922.59;5053330;28;20090;-80
2023/08/27 02:50:55;;;;;;;12.63;9.57;;;;;;;18.58;100.00;92938.19;5049984;28;20052;-80
2023/08/27 02:53:22;;;;;;;12.90;9.55;;;;;;;18.48;100.00;92926.00;5052180;28;20103;-80
2023/08/27 02:55:49;;;;;;;13.18;9.98;;;;;;;18.28;100.00;92896.41;5055996;28;20550;-80
2023/08/27 02:58:16;;;;;;;14.63;9.93;;;;;;;18.40;100.00;92921.31;5048033;28;20056;-80
2023/08/27 03:00:43;;;;;;;19.02;10.63;;;;;;;18.47;100.00;92942.63;5050581;28;20045;-80
2023/08/27 03:03:09;;;;;;;12.45;10.15;;;;;;;18.44;100.00;92935.38;5052182;28;20052;-80
2023/08/27 03:05:37;;;;;;;15.55;10.50;;;;;;;18.40;100.00;92942.13;5053543;28;20045;-80
2023/08/27 03:08:04;;;;;;;13.55;9.38;;;;;;;18.33;100.00;92942.41;5050058;28;20053;-80
2023/08/27 03:10:31;;;;;;;13.70;8.85;;;;;;;18.29;100.00;92942.16;5049263;28;20394;-80
2023/08/27 03:12:58;;;;;;;14.02;9.43;;;;;;;18.21;100.00;92936.72;5051894;28;20048;-82
2023/08/27 03:15:24;;;;;;;13.95;9.98;;;;;;;18.22;100.00;92933.06;5052405;28;20460;-81
2023/08/27 03:17:51;;;;;;;12.40;9.80;;;;;;;18.15;100.00;92926.31;5059442;28;20109;-81
2023/08/27 03:20:18;;;;;;;14.48;9.43;;;;;;;18.25;100.00;92948.94;5060716;28;20091;-81
2023/08/27 03:22:46;;;;;;;14.15;9.98;;;;;;;18.25;100.00;92943.75;5053739;28;20102;-82
2023/08/27 03:25:13;;;;;;;15.02;10.07;;;;;;;18.26;100.00;92947.91;5055061;28;20036;-81
2023/08/27 03:27:39;;;;;;;14.02;9.73;;;;;;;18.20;100.00;92940.38;5057005;28;20053;-82
2023/08/27 03:30:07;;;;;;;14.30;10.90;;;;;;;18.22;100.00;92940.88;5054011;28;20041;-80
2023/08/27 03:32:34;;;;;;;14.88;9.20;;;;;;;18.25;100.00;92938.53;5048161;28;20490;-80
2023/08/27 03:35:01;;;;;;;12.25;9.80;;;;;;;18.20;100.00;92927.38;5050644;28;20335;-80
2023/08/27 03:37:27;;;;;;;12.77;10.85;;;;;;;18.29;100.00;92941.38;5059357;28;20516;-80
2023/08/27 03:39:55;;;;;;;12.93;10.20;;;;;;;18.29;100.00;92936.19;5049584;28;20048;-81
2023/08/27 03:42:22;;;;;;;14.23;9.52;;;;;;;18.23;100.00;92929.44;5058564;28;20041;-80
2023/08/27 03:44:49;;;;;;;15.75;10.45;;;;;;;18.29;100.00;92944.75;5051383;28;20456;-81
2023/08/27 03:47:17;;;;;;;12.52;9.80;;;;;;;18.27;100.00;92946.06;5050496;28;20053;-81
2023/08/27 03:49:44;;;;;;;13.20;9.60;;;;;;;18.29;100.00;92949.94;5058763;28;20122;-81
2023/08/27 03:52:10;;;;;;;13.95;9.93;;;;;;;18.22;100.00;92952.06;5049838;28;20110;-81
2023/08/27 03:54:37;;;;;;;12.50;9.85;;;;;;;18.20;100.00;92945.56;5055655;28;20098;-81
2023/08/27 03:57:05;;;;;;;14.95;10.63;;;;;;;17.96;100.00;92913.09;5050784;28;20048;-80
2023/08/27 03:59:32;;;;;;;15.88;10.70;;;;;;;18.12;100.00;92934.66;5048335;28;20091;-80
2023/08/27 04:01:59;;;;;;;15.38;9.80;;;;;;;18.12;100.00;92939.88;5050107;28;20053;-80
2023/08/27 04:04:26;;;;;;;16.13;10.80;;;;;;;18.08;100.00;92944.03;5057801;28;20040;-81
2023/08/27 04:06:53;;;;;;;14.13;10.00;;;;;;;18.05;100.00;92946.34;5048778;28;20048;-81
2023/08/27 04:09:20;;;;;;;15.50;9.57;;;;;;;18.05;100.00;92943.75;5050599;28;20394;-81
2023/08/27 04:11:47;;;;;;;14.93;10.52;;;;;;;18.10;100.00;92954.94;5053236;28;20072;-81
2023/08/27 04:14:15;;;;;;;14.15;10.68;;;;;;;18.08;100.00;92944.03;5053512;28;20447;-80
2023/08/27 04:16:42;;;;;;;13.75;10.05;;;;;;;18.12;100.00;92945.06;5053232;28;20114;-79
2023/08/27 04:19:08;;;;;;;12.82;10.52;;;;;;;18.17;100.00;92952.06;5055940;28;20524;-79
2023/08/27 04:21:35;;;;;;;17.08;11.13;;;;;;;18.18;100.00;92953.63;5050376;28;20056;-77
2023/08/27 04:24:03;;;;;;;17.70;11.10;;;;;;;18.25;100.00;92955.94;5046892;28;20057;-81
2023/08/27 04:26:30;;;;;;;15.48;10.82;;;;;;;18.28;100.00;92956.19;5050498;28;20459;-81
2023/08/27 04:28:56;;;;;;;16.77;12.50;;;;;;;18.32;100.00;92953.09;5049555;28;20063;-80
2023/08/27 04:31:25;;;;;;;21.05;11.93;;;;;;;18.35;100.00;92955.94;5050572;28;20638;-81
2023/08/27 04:33:51;;;;;;;14.57;10.93;;;;;;;18.42;100.00;92950.44;5049878;28;20086;-81
2023/08/27 04:36:18;;;;;;;17.08;11.75;;;;;;;18.44;100.00;92948.38;5058130;28;20049;-82
2023/08/27 04:38:47;;;;;;;17.60;10.15;;;;;;;18.47;100.00;92949.66;5049303;28;20053;-82
2023/08/27 04:41:14;;;;;;;18.05;11.10;;;;;;;18.43;100.00;92939.00;5055575;28;20056;-81
2023/08/27 04:43:41;;;;;;;18.55;10.98;;;;;;;18.42;100.00;92937.44;5047580;28;20095;-79
2023/08/27 04:46:07;;;;;;;19.67;11.90;;;;;;;18.49;100.00;92943.16;5052279;28;20090;-81
2023/08/27 04:48:35;;;;;;;20.08;10.68;;;;;;;18.57;100.00;92952.22;5059147;28;20041;-82
2023/08/27 04:51:02;;;;;;;20.30;11.30;;;;;;;18.54;100.00;92940.53;5055069;28;20492;-81
2023/08/27 04:53:29;;;;;;;16.45;10.88;;;;;;;18.66;100.00;92955.81;5056673;28;20044;-80
2023/08/27 04:55:55;;;;;;;17.40;11.07;;;;;;;18.67;100.00;92946.22;5054790;28;20041;-81
2023/08/27 04:58:22;;;;;;;16.48;10.15;;;;;;;18.74;100.00;92951.88;5051878;28;20049;-79
2023/08/27 05:00:52;;;;;;;16.50;9.77;;;;;;;18.74;100.00;92940.72;5063483;28;20045;-80
2023/08/27 05:03:22;;;;;;;18.23;10.20;;;;;;;18.91;100.00;92961.97;5051642;28;20764;-80
2023/08/27 05:05:53;;;;;;;20.27;10.27;;;;;;;18.99;100.00;92965.84;5050316;28;20095;-81
2023/08/27 05:08:20;;;;;;;14.88;11.20;;;;;;;19.04;100.00;92959.84;5061986;28;20053;-81
2023/08/27 05:10:47;;;;;;;20.30;11.48;;;;;;;19.07;100.00;92946.31;5052849;28;20045;-81
2023/08/27 05:13:14;;;;;;;15.35;10.20;;;;;;;19.17;100.00;92953.28;5057855;28;20059;-80
2023/08/27 05:15:43;;;;;;;16.83;10.98;;;;;;;19.33;100.00;92964.38;5057369;28;20048;-80
2023/08/27 05:18:10;;;;;;;18.55;10.73;;;;;;;19.41;100.00;92960.44;5053456;28;20041;-82
2023/08/27 05:20:37;;;;;;;16.45;9.77;;;;;;;19.41;100.00;92957.81;5052750;28;20159;-80
2023/08/27 05:23:05;;;;;;;18.27;10.63;;;;;;;19.45;100.00;92953.63;5049096;28;20045;-82
2023/08/27 05:25:32;;;;;;;19.25;11.40;;;;;;;19.59;100.00;92962.38;5058555;28;20041;-81
2023/08/27 05:27:58;;;;;;;19.42;10.43;;;;;;;19.61;100.00;92968.09;5064027;28;20098;-83
2023/08/27 05:30:25;;;;;;;14.70;10.70;;;;;;;19.73;100.00;92972.19;5055184;28;20053;-81
2023/08/27 05:32:53;;;;;;;15.57;10.93;;;;;;;19.84;100.00;92965.06;5052618;28;20048;-78
2023/08/27 05:35:24;;;;;;;15.85;10.98;;;;;;;19.98;100.00;92967.84;5053078;28;20044;-78
2023/08/27 05:37:50;;;;;;;13.50;10.13;;;;;;;19.99;100.00;92966.78;5054647;28;20044;-78
2023/08/27 05:40:19;;;;;;;13.50;10.00;;;;;;;20.09;100.00;92964.09;5059569;28;20041;-78
2023/08/27 05:42:45;;;;;;;12.80;10.32;;;;;;;20.16;100.00;92961.16;5056452;28;20048;-78
2023/08/27 05:45:12;;;;;;;15.27;10.02;;;;;;;20.30;100.00;92963.91;5060739;28;20098;-79
2023/08/27 05:47:39;;;;;;;13.35;10.50;;;;;;;20.43;100.00;92970.28;5051875;28;20674;-79
2023/08/27 05:50:06;;;;;;;14.35;10.07;;;;;;;20.49;100.00;92955.34;5051859;28;20424;-78
2023/08/27 05:52:33;;;;;;;13.80;10.32;;;;;;;20.50;100.00;92965.50;5051618;28;20386;-78
2023/08/27 05:54:59;;;;;;;25.05;11.15;;;;;;;20.44;100.00;92943.16;5058051;28;20068;-78
2023/08/27 05:57:27;;;;;;;15.43;10.05;;;;;;;20.68;100.00;92964.00;5051565;28;20433;-77
2023/08/27 05:59:54;;;;;;;15.15;10.75;;;;;;;20.70;100.00;92964.50;5051646;28;20086;-78
2023/08/27 06:02:21;;;;;;;14.18;9.98;;;;;;;20.80;100.00;92960.22;5051145;28;20041;-78
2023/08/27 06:04:48;;;;;;;14.70;10.13;;;;;;;20.77;100.00;92945.91;5050752;28;20106;-78
2023/08/27 06:07:15;;;;;;;12.98;10.43;;;;;;;21.06;100.00;92959.94;5061893;28;20128;-79
2023/08/27 06:09:42;;;;;;;13.48;10.95;;;;;;;21.11;100.00;92964.31;5055642;28;20548;-79
2023/08/27 06:12:09;;;;;;;15.23;10.85;;;;;;;21.15;100.00;92962.72;5056789;28;20099;-79
2023/08/27 06:14:37;;;;;;;13.75;9.68;;;;;;;21.24;100.00;92950.53;5057539;28;20118;-79
2023/08/27 06:17:04;;;;;;;15.18;9.98;;;;;;;21.35;100.00;92951.97;5056472;28;20055;-79
2023/08/27 06:19:31;;;;;;;16.17;10.02;;;;;;;21.57;100.00;92948.00;5051832;28;20044;-79
2023/08/27 06:21:57;;;;;;;12.88;9.68;;;;;;;21.83;100.00;92942.41;5059433;28;20463;-79
2023/08/27 06:24:24;;;;;;;13.88;10.10;;;;;;;22.04;100.00;92947.28;5056692;28;20102;-79
2023/08/27 06:26:51;;;;;;;12.93;9.50;;;;;;;22.26;100.00;92946.63;5053808;28;20499;-79
2023/08/27 06:29:18;;;;;;;13.35;9.45;;;;;;;22.42;99.74;92944.53;5052938;28;20044;-79
2023/08/27 06:31:46;;;;;;;13.45;9.18;;;;;;;22.70;98.04;92946.38;5051564;28;20088;-79
2023/08/27 06:34:12;;;;;;;13.18;9.20;;;;;;;22.95;95.57;92945.09;5056212;28;20048;-79
2023/08/27 06:36:40;;;;;;;11.82;8.38;;;;;;;23.11;91.02;92951.84;5054153;28;20554;-79
2023/08/27 06:39:06;;;;;;;16.27;9.68;;;;;;;23.21;92.76;92941.94;5053211;28;20098;-79
2023/08/27 06:41:33;;;;;;;18.02;9.32;;;;;;;23.44;91.96;92943.84;5052552;28;20596;-78
2023/08/27 06:44:00;;;;;;;13.02;9.27;;;;;;;23.56;90.00;92938.06;5050230;28;20168;-79
2023/08/27 06:46:26;;;;;;;14.40;9.20;;;;;;;23.68;90.36;92946.16;5059941;28;20580;-78
2023/08/27 06:48:56;;;;;;;11.13;8.55;;;;;;;23.87;89.33;92947.81;5050246;28;20049;-78
2023/08/27 06:51:22;;;;;;;14.40;8.73;;;;;;;24.03;88.72;92949.00;5057919;28;20448;-78
2023/08/27 06:53:49;;;;;;;13.25;8.55;;;;;;;24.19;86.21;92937.38;5056993;28;20087;-78
2023/08/27 06:56:17;;;;;;;10.63;7.90;;;;;;;24.35;83.98;92937.75;5058463;28;20052;-78
2023/08/27 06:58:44;;;;;;;10.68;8.02;;;;;;;24.52;85.13;92940.44;5049584;28;20616;-78
2023/08/27 07:01:11;;;;;;;12.38;8.32;;;;;;;24.80;83.67;92945.47;5053003;28;20074;-78
2023/08/27 07:03:38;;;;;;;16.02;8.70;;;;;;;25.06;82.09;92944.78;5063314;28;20056;-79
2023/08/27 07:06:06;;;;;;;10.70;7.70;;;;;;;25.29;79.17;92939.38;5057169;28;20584;-79
2023/08/27 07:08:33;;;;;;;10.52;7.40;;;;;;;25.59;78.05;92946.69;5051602;28;20455;-79
2023/08/27 07:10:59;;;;;;;12.77;8.40;;;;;;;25.70;79.54;92947.13;5054107;28;20040;-79
2023/08/27 07:13:26;;;;;;;11.23;8.20;;;;;;;25.78;79.44;92950.84;5051418;28;20562;-79
2023/08/27 07:15:53;;;;;;;12.57;8.48;;;;;;;26.11;77.82;92956.31;5051437;28;20102;-79
2023/08/27 07:18:20;;;;;;;12.35;7.85;;;;;;;26.24;77.56;92965.16;5049353;28;20052;-79
2023/08/27 07:20:47;;;;;;;10.10;7.50;;;;;;;26.21;75.75;92965.75;5050780;28;20125;-79
2023/08/27 07:23:16;;;;;;;11.02;8.02;;;;;;;26.47;74.31;92966.78;5050910;28;20125;-79
2023/08/27 07:25:43;;;;;;;13.38;7.90;;;;;;;26.75;73.84;92959.22;5052430;28;20052;-80
2023/08/27 07:28:10;;;;;;;11.30;7.30;;;;;;;26.80;71.68;92963.56;5051059;28;20497;-79
2023/08/27 07:30:37;;;;;;;7.53;6.20;;;;;;;26.81;70.98;92949.28;5052225;28;20053;-80
2023/08/27 07:33:06;;;;;;;11.27;7.68;;;;;;;26.90;70.49;92957.13;5049824;28;20052;-79
2023/08/27 07:35:32;;;;;;;13.93;7.40;;;;;;;26.77;72.49;92943.88;5055446;28;20044;-79
2023/08/27 07:37:59;;;;;;;12.88;7.75;;;;;;;26.74;72.34;92949.03;5059057;28;20052;-79
2023/08/27 07:40:27;;;;;;;13.13;7.85;;;;;;;26.83;72.64;92948.97;5050804;28;20094;-79
2023/08/27 07:42:54;;;;;;;11.18;6.82;;;;;;;27.22;72.12;92949.69;5051128;28;20049;-78
2023/08/27 07:45:21;;;;;;;12.32;6.65;;;;;;;27.29;69.91;92951.78;5048809;28;20107;-78
2023/08/27 07:47:48;;;;;;;14.60;7.93;;;;;;;27.56;68.94;92952.38;5050708;28;20074;-78
2023/08/27 07:50:15;;;;;;;10.88;6.78;;;;;;;27.90;67.02;92963.72;5054473;28;20119;-79
2023/08/27 07:52:41;;;;;;;14.75;7.63;;;;;;;28.03;67.11;92959.28;5053818;28;20040;-79
2023/08/27 07:55:09;;;;;;;14.50;8.48;;;;;;;28.21;67.83;92965.16;5052753;28;20081;-79
2023/08/27 07:57:37;;;;;;;10.32;6.60;;;;;;;28.50;66.46;92952.09;5054058;28;20131;-78
2023/08/27 08:00:04;;;;;;;8.77;6.93;;;;;;;28.77;65.55;92940.13;5057367;28;20106;-79
2023/08/27 08:02:31;;;;;;;10.80;6.13;;;;;;;29.01;64.04;92951.78;5050680;28;20092;-79
2023/08/27 08:04:58;;;;;;;10.15;7.22;;;;;;;29.16;62.56;92947.69;5064185;28;21072;-79
2023/08/27 08:07:25;;;;;;;12.43;7.13;;;;;;;29.46;63.50;92947.41;5053400;28;20160;-78
2023/08/27 08:09:52;;;;;;;9.15;6.47;;;;;;;29.44;60.63;92938.25;5051080;28;20767;-79
2023/08/27 08:12:20;;;;;;;11.23;6.93;;;;;;;29.65;62.93;92937.31;5058426;28;20044;-79
2023/08/27 08:14:48;;;;;;;9.30;7.05;;;;;;;29.86;62.30;92942.44;5052340;28;20547;-80
2023/08/27 08:17:15;;;;;;;11.20;6.60;;;;;;;30.01;60.68;92940.91;5060012;28;20400;-79
2023/08/27 08:19:42;;;;;;;9.07;6.78;;;;;;;30.03;59.99;92940.56;5047147;28;20053;-79
2023/08/27 08:22:09;;;;;;;10.13;6.93;;;;;;;30.20;60.28;92924.38;5057058;28;20175;-79
2023/08/27 08:24:36;;;;;;;9.85;6.63;;;;;;;30.42;60.12;92922.25;5052520;28;20170;-79
2023/08/27 08:27:03;;;;;;;9.93;7.32;;;;;;;30.51;58.47;92917.53;5054393;28;20435;-79
2023/08/27 08:29:32;;;;;;;8.85;6.90;;;;;;;30.71;57.72;92927.47;5067963;28;20578;-79
2023/08/27 08:32:00;;;;;;;11.70;6.97;;;;;;;31.02;58.82;92918.69;5052251;28;20055;-79
2023/08/27 08:34:27;;;;;;;8.00;5.75;;;;;;;31.25;57.43;92914.59;5064293;28;20062;-79
2023/08/27 08:36:54;;;;;;;7.70;5.72;;;;;;;31.05;56.42;92912.69;5056460;28;20133;-79
2023/08/27 08:39:21;;;;;;;7.75;5.40;;;;;;;31.52;57.96;92922.72;5053305;28;20044;-80
2023/08/27 08:41:55;;;;;;;12.27;6.30;;;;;;;31.73;53.69;92917.81;5053760;28;20045;-79
2023/08/27 08:44:30;;;;;;;9.48;5.65;;;;;;;31.80;55.11;92916.41;5055095;28;20049;-78
2023/08/27 08:46:57;;;;;;;7.35;5.60;;;;;;;32.13;52.35;92912.47;5056956;28;20045;-79
2023/08/27 08:49:28;;;;;;;9.30;5.13;;;;;;;32.52;50.73;92912.34;5054633;28;20123;-79
2023/08/27 08:52:00;;;;;;;13.38;5.57;;;;;;;32.82;51.66;92907.44;5056067;28;20048;-79
2023/08/27 08:54:28;;;;;;;9.85;5.28;;;;;;;33.09;50.83;92904.78;5057456;28;20057;-79
2023/08/27 08:57:01;;;;;;;10.32;4.97;;;;;;;33.29;47.96;92900.09;5062299;28;20412;-79
2023/08/27 08:59:29;;;;;;;8.07;5.25;;;;;;;33.17;45.40;92906.41;5053776;28;20139;-77
2023/08/27 09:01:56;;;;;;;7.43;4.35;;;;;;;31.47;45.50;92910.50;5063081;28;20508;-79
2023/08/27 09:04:26;;;;;;;5.60;3.63;;;;;;;31.00;46.60;92905.00;5057214;28;20451;-78
2023/08/27 09:06:53;;;;;;;6.70;4.15;;;;;;;31.16;46.91;92899.66;5063729;28;20505;-79
2023/08/27 09:09:21;;;;;;;5.65;3.88;;;;;;;31.56;48.70;92895.13;5055713;28;20493;-78
2023/08/27 09:11:49;;;;;;;7.32;3.67;;;;;;;31.09;46.75;92896.84;5052451;28;20052;-78
2023/08/27 09:14:17;;;;;;;6.80;3.80;;;;;;;30.73;47.34;92890.78;5056902;28;20530;-78
2023/08/27 09:16:43;;;;;;;8.23;3.63;;;;;;;30.33;47.72;92890.63;5057312;28;20108;-79
2023/08/27 09:19:10;;;;;;;7.95;3.97;;;;;;;30.56;49.09;92899.84;5052294;28;20134;-79
2023/08/27 09:21:38;;;;;;;5.82;3.60;;;;;;;30.53;47.07;92888.81;5058013;28;20142;-78
2023/08/27 09:24:05;;;;;;;5.68;3.97;;;;;;;30.49;47.46;92887.19;5054051;28;20091;-79
2023/08/27 09:26:32;;;;;;;4.85;3.50;;;;;;;30.79;45.52;92886.75;5051917;28;20095;-79
2023/08/27 09:29:01;;;;;;;5.65;3.50;;;;;;;30.68;46.78;92886.47;5060998;28;21068;-80
2023/08/27 09:31:38;;;;;;;5.95;3.40;;;;;;;30.44;44.74;92861.72;5055723;28;20055;-77
2023/08/27 09:34:05;;;;;;;4.68;3.13;;;;;;;30.71;44.51;92871.78;5052181;28;20049;-78
2023/08/27 09:36:33;;;;;;;3.63;2.58;;;;;;;31.00;43.24;92875.06;5057264;28;20099;-77
2023/08/27 09:39:08;;;;;;;6.55;3.03;;;;;;;30.79;43.28;92866.28;5050487;28;20493;-78
2023/08/27 09:41:37;;;;;;;4.70;2.83;;;;;;;31.11;41.87;92877.94;5061396;28;20136;-78
2023/08/27 09:44:04;;;;;;;5.63;2.88;;;;;;;31.12;42.92;92874.94;5056227;28;20095;-78
2023/08/27 09:46:31;;;;;;;4.07;2.38;;;;;;;30.87;40.04;92877.06;5052306;28;20490;-78
2023/08/27 09:48:59;;;;;;;6.00;2.95;;;;;;;31.09;41.89;92865.00;5050834;28;20049;-78
2023/08/27 09:51:27;;;;;;;5.88;3.13;;;;;;;30.92;41.48;92874.16;5057781;28;20056;-79
2023/08/27 09:53:53;;;;;;;8.10;4.25;;;;;;;30.86;41.31;92876.28;5059427;28;20052;-80
2023/08/27 09:56:24;;;;;;;5.65;3.10;;;;;;;30.67;41.81;92875.13;5051790;28;20036;-78
2023/08/27 09:58:52;;;;;;;5.35;2.83;;;;;;;30.67;42.12;92871.69;5050809;28;20127;-78
2023/08/27 10:01:19;;;;;;;4.55;2.70;;;;;;;30.85;41.46;92871.31;5058057;28;20049;-77
2023/08/27 10:03:47;;;;;;;5.00;2.70;;;;;;;30.80;41.42;92869.72;5057063;28;20053;-78
2023/08/27 10:06:14;;;;;;;4.03;2.35;;;;;;;30.65;41.31;92865.97;5052316;28;20481;-76
2023/08/27 10:08:49;;;;;;;5.05;2.80;;;;;;;30.33;41.68;92868.66;5051072;28;20048;-78
2023/08/27 10:11:16;;;;;;;4.40;2.60;;;;;;;30.47;42.20;92862.91;5049137;28;20511;-80
2023/08/27 10:13:45;;;;;;;6.18;3.13;;;;;;;30.33;43.11;92866.00;5053706;28;20161;-77
2023/08/27 10:16:13;;;;;;;4.47;2.65;;;;;;;30.69;42.65;92869.50;5052435;28;20128;-78
2023/08/27 10:18:40;;;;;;;6.15;3.05;;;;;;;30.84;41.62;92854.66;5052479;28;20059;-77
2023/08/27 10:21:08;;;;;;;5.30;2.63;;;;;;;31.00;41.67;92859.16;5053612;28;20078;-78
2023/08/27 10:23:38;;;;;;;9.40;3.33;;;;;;;31.30;42.03;92859.41;5056422;28;20067;-77
2023/08/27 10:26:05;;;;;;;5.30;3.00;;;;;;;31.43;41.06;92861.91;5047542;28;20520;-78
2023/08/27 10:28:33;;;;;;;4.75;2.78;;;;;;;31.10;41.35;92842.66;5051798;28;20048;-79
2023/08/27 10:31:03;;;;;;;7.45;3.15;;;;;;;31.45;41.47;92862.31;5053512;28;20049;-77
2023/08/27 10:33:30;;;;;;;4.60;3.05;;;;;;;31.45;41.16;92855.13;5049918;28;20048;-78
2023/08/27 10:36:00;;;;;;;7.65;2.70;;;;;;;30.90;41.67;92837.38;5051845;28;20060;-79
2023/08/27 10:38:28;;;;;;;6.50;3.08;;;;;;;31.16;41.90;92851.13;5052125;28;20650;-77
2023/08/27 10:40:55;;;;;;;4.38;3.17;;;;;;;31.12;40.53;92851.06;5050490;28;20053;-77
2023/08/27 10:43:22;;;;;;;5.43;3.35;;;;;;;31.65;42.10;92849.78;5048935;28;20130;-77
2023/08/27 10:45:49;;;;;;;7.07;3.17;;;;;;;31.36;42.05;92843.16;5052133;28;20052;-78
2023/08/27 10:48:30;;;;;;;5.72;3.10;;;;;;;31.56;40.98;92835.97;5051624;28;20493;-77
2023/08/27 10:51:10;;;;;;;7.00;3.65;;;;;;;31.82;40.53;92839.81;5052435;28;20528;-77
2023/08/27 10:53:41;;;;;;;7.40;3.40;;;;;;;31.92;39.81;92835.84;5052355;28;20048;-77
2023/08/27 10:56:30;;;;;;;8.52;4.13;;;;;;;32.02;39.75;92824.59;5049039;28;20084;-78
2023/08/27 10:59:01;;;;;;;8.63;3.75;;;;;;;31.93;39.84;92822.19;5050375;28;20127;-77
2023/08/27 11:01:28;;;;;;;5.15;3.15;;;;;;;32.11;38.90;92822.47;5051307;28;20094;-77
2023/08/27 11:03:57;;;;;;;4.53;2.50;;;;;;;32.10;38.96;92807.66;5053040;28;20052;-80
2023/08/27 11:06:37;;;;;;;4.65;2.67;;;;;;;32.11;38.20;92825.13;5052029;28;20045;-78
2023/08/27 11:09:12;;;;;;;6.07;2.70;;;;;;;31.88;37.52;92805.81;5050776;28;20041;-78
2023/08/27 11:11:40;;;;;;;4.72;3.03;;;;;;;32.03;38.74;92804.13;5051085;28;20106;-77
2023/08/27 11:14:08;;;;;;;5.78;3.20;;;;;;;32.04;39.78;92822.38;5051944;28;20128;-78
2023/08/27 11:16:44;;;;;;;5.90;3.15;;;;;;;31.83;39.48;92812.13;5050726;28;20052;-78
2023/08/27 11:19:13;;;;;;;6.53;3.10;;;;;;;31.84;38.76;92787.88;5051182;28;20044;-78
2023/08/27 11:21:50;;;;;;;5.35;3.05;;;;;;;32.20;37.66;92811.59;5050310;28;20345;-78
2023/08/27 11:24:23;;;;;;;5.00;2.75;;;;;;;32.13;38.93;92798.22;5054473;28;20063;-79